createdAt,value
2023-05-15T00:02:31.871Z,10.86
2023-05-15T00:05:02.163Z,10.85
2023-05-15T00:07:30.835Z,10.89
2023-05-15T00:10:00.537Z,10.93
2023-05-15T00:12:40.257Z,10.91
2023-05-15T00:15:14.280Z,10.85
2023-05-15T00:17:46.509Z,10.89
2023-05-15T00:20:17.390Z,10.92
2023-05-15T00:25:31.395Z,11.05
2023-05-15T00:28:11.305Z,10.90
2023-05-15T00:30:43.857Z,10.91
2023-05-15T00:36:09.381Z,10.92
2023-05-15T00:38:39.532Z,10.92
2023-05-15T00:41:13.580Z,10.93
2023-05-15T00:43:49.786Z,10.94
2023-05-15T00:46:21.437Z,10.90
2023-05-15T00:48:59.427Z,10.98
2023-05-15T00:51:34.367Z,10.49
2023-05-15T00:54:08.983Z,10.99
2023-05-15T00:56:39.737Z,10.95
2023-05-15T00:59:13.578Z,10.92
2023-05-15T01:01:45.553Z,10.97
2023-05-15T01:04:16.267Z,10.88
2023-05-15T01:06:51.720Z,10.95
2023-05-15T01:09:28.851Z,10.83
2023-05-15T01:12:03.721Z,10.86
2023-05-15T01:14:38.631Z,10.85
2023-05-15T01:17:09.479Z,10.88
2023-05-15T01:19:40.275Z,10.79
2023-05-15T01:25:57.523Z,10.75
2023-05-15T01:29:09.762Z,10.72
2023-05-15T01:31:42.319Z,10.62
2023-05-15T01:34:14.952Z,10.67
2023-05-15T01:37:12.198Z,10.69
2023-05-15T01:39:46.439Z,10.76
2023-05-15T01:42:22.508Z,10.76
2023-05-15T01:45:00.008Z,10.80
2023-05-15T01:47:47.604Z,10.81
2023-05-15T01:50:21.397Z,10.73
2023-05-15T01:53:02.876Z,10.75
2023-05-15T01:55:32.789Z,10.86
2023-05-15T01:58:05.798Z,10.92
2023-05-15T02:00:38.253Z,10.84
2023-05-15T02:03:26.508Z,10.88
2023-05-15T02:05:57.169Z,10.79
2023-05-15T02:08:34.144Z,10.81
2023-05-15T02:11:05.083Z,10.85
2023-05-15T02:13:40.504Z,10.74
2023-05-15T02:16:11.785Z,10.83
2023-05-15T02:18:43.895Z,10.81
2023-05-15T02:21:14.456Z,10.80
2023-05-15T02:23:51.821Z,10.79
2023-05-15T02:27:00.642Z,10.82
2023-05-15T02:29:50.392Z,10.77
2023-05-15T02:33:19.960Z,10.81
2023-05-15T02:36:41.819Z,10.81
2023-05-15T02:39:14.727Z,10.83
2023-05-15T02:42:02.573Z,10.83
2023-05-15T02:44:32.714Z,10.87
2023-05-15T02:49:53.657Z,10.74
2023-05-15T02:52:25.218Z,10.76
2023-05-15T02:55:01.408Z,10.73
2023-05-15T02:57:41.146Z,10.72
2023-05-15T03:00:15.781Z,10.75
2023-05-15T03:02:47.148Z,10.78
2023-05-15T03:05:20.110Z,10.80
2023-05-15T03:10:38.854Z,10.62
2023-05-15T03:15:55.824Z,10.69
2023-05-15T03:18:27.088Z,10.72
2023-05-15T03:21:04.668Z,10.64
2023-05-15T03:23:37.976Z,10.62
2023-05-15T03:26:14.434Z,10.63
2023-05-15T03:28:48.365Z,10.53
2023-05-15T03:31:29.696Z,10.60
2023-05-15T03:34:01.388Z,10.59
2023-05-15T03:39:16.810Z,10.66
2023-05-15T03:41:49.550Z,10.62
2023-05-15T03:47:06.864Z,10.63
2023-05-15T03:49:40.873Z,10.66
2023-05-15T03:52:13.243Z,10.54
2023-05-15T03:54:51.867Z,10.60
2023-05-15T03:57:25.336Z,10.63
2023-05-15T03:59:56.761Z,10.59
2023-05-15T04:02:26.909Z,10.55
2023-05-15T04:05:06.057Z,10.60
2023-05-15T04:07:42.353Z,10.58
2023-05-15T04:10:16.818Z,10.53
2023-05-15T04:12:50.874Z,10.51
2023-05-15T04:15:30.079Z,10.61
2023-05-15T04:18:09.933Z,10.59
2023-05-15T04:20:45.709Z,10.66
2023-05-15T04:23:19.496Z,10.47
2023-05-15T04:25:54.012Z,10.62
2023-05-15T04:28:28.660Z,10.64
2023-05-15T04:31:05.344Z,10.64
2023-05-15T04:33:41.116Z,10.60
2023-05-15T04:36:18.845Z,10.68
2023-05-15T04:38:58.963Z,10.59
2023-05-15T04:41:30.687Z,10.64
2023-05-15T04:46:48.067Z,10.87
2023-05-15T04:49:19.559Z,10.78
2023-05-15T04:52:00.171Z,11.00
2023-05-15T04:54:30.612Z,11.00
2023-05-15T04:57:06.891Z,11.04
2023-05-15T04:59:37.718Z,10.99
2023-05-15T05:02:14.099Z,10.91
2023-05-15T05:04:57.805Z,10.90
2023-05-15T05:07:34.572Z,10.95
2023-05-15T05:10:04.459Z,10.89
2023-05-15T05:12:35.657Z,11.08
2023-05-15T05:15:09.199Z,11.24
2023-05-15T05:17:38.229Z,11.19
2023-05-15T05:20:13.547Z,11.19
2023-05-15T05:22:43.303Z,11.27
2023-05-15T05:25:28.776Z,11.28
2023-05-15T05:28:00.753Z,11.40
2023-05-15T05:30:36.025Z,11.34
2023-05-15T05:33:13.980Z,11.36
2023-05-15T05:35:43.899Z,11.55
2023-05-15T05:41:03.207Z,11.53
2023-05-15T05:43:34.835Z,11.51
2023-05-15T05:46:07.120Z,11.48
2023-05-15T05:48:41.286Z,11.52
2023-05-15T05:51:12.080Z,11.42
2023-05-15T05:53:42.812Z,11.50
2023-05-15T05:56:13.823Z,11.33
2023-05-15T05:58:42.481Z,11.46
2023-05-15T06:01:18.287Z,11.48
2023-05-15T06:03:58.023Z,11.47
2023-05-15T06:06:35.173Z,11.49
2023-05-15T06:09:27.046Z,11.50
2023-05-15T06:12:00.845Z,11.62
2023-05-15T06:14:47.494Z,11.54
2023-05-15T06:17:21.096Z,11.47
2023-05-15T06:19:55.133Z,11.58
2023-05-15T06:22:25.955Z,11.54
2023-05-15T06:27:41.244Z,11.96
2023-05-15T06:30:14.716Z,12.09
2023-05-15T06:32:46.565Z,12.18
2023-05-15T06:35:18.571Z,12.23
2023-05-15T06:37:59.521Z,12.18
2023-05-15T06:40:34.628Z,11.96
2023-05-15T06:43:08.433Z,11.81
2023-05-15T06:45:50.591Z,12.07
2023-05-15T06:48:21.330Z,12.20
2023-05-15T06:50:53.915Z,12.21
2023-05-15T06:53:24.983Z,12.44
2023-05-15T06:55:59.928Z,12.69
2023-05-15T06:58:37.163Z,12.75
2023-05-15T07:01:14.068Z,12.72
2023-05-15T07:03:45.256Z,12.62
2023-05-15T07:06:18.618Z,12.71
2023-05-15T07:09:02.164Z,12.85
2023-05-15T07:11:36.952Z,12.73
2023-05-15T07:14:06.226Z,12.77
2023-05-15T07:16:36.530Z,12.62
2023-05-15T07:19:07.156Z,12.69
2023-05-15T07:21:40.489Z,12.83
2023-05-15T07:24:14.419Z,12.90
2023-05-15T07:26:56.984Z,12.90
2023-05-15T07:29:38.687Z,12.89
2023-05-15T07:32:12.803Z,12.95
2023-05-15T07:34:43.129Z,13.23
2023-05-15T07:37:17.124Z,13.30
2023-05-15T07:39:58.893Z,13.46
2023-05-15T07:42:35.309Z,13.29
2023-05-15T07:45:04.304Z,13.30
2023-05-15T07:47:36.261Z,13.62
2023-05-15T07:50:10.229Z,13.36
2023-05-15T07:52:46.846Z,13.62
2023-05-15T07:55:15.912Z,13.52
2023-05-15T07:57:53.402Z,13.61
2023-05-15T08:00:23.886Z,13.92
2023-05-15T08:03:01.267Z,13.82
2023-05-15T08:05:32.991Z,13.82
2023-05-15T08:08:07.057Z,13.83
2023-05-15T08:10:36.369Z,13.95
2023-05-15T08:13:11.846Z,14.12
2023-05-15T08:15:48.670Z,14.37
2023-05-15T08:18:19.398Z,14.52
2023-05-15T08:20:50.740Z,14.65
2023-05-15T08:23:20.931Z,14.69
2023-05-15T08:25:51.432Z,14.66
2023-05-15T08:28:23.575Z,14.65
2023-05-15T08:30:56.598Z,14.72
2023-05-15T08:33:28.194Z,14.67
2023-05-15T08:36:00.755Z,14.60
2023-05-15T08:38:38.580Z,14.51
2023-05-15T08:41:47.716Z,14.32
2023-05-15T08:44:18.753Z,14.25
2023-05-15T08:46:54.594Z,14.32
2023-05-15T08:50:23.988Z,14.51
2023-05-15T08:53:15.881Z,15.12
2023-05-15T08:55:44.459Z,15.39
2023-05-15T08:58:13.788Z,15.05
2023-05-15T09:00:45.545Z,14.87
2023-05-15T09:03:25.694Z,14.99
2023-05-15T09:06:04.633Z,15.01
2023-05-15T09:08:37.633Z,14.93
2023-05-15T09:11:10.358Z,15.09
2023-05-15T09:13:53.557Z,15.35
2023-05-15T09:16:27.565Z,15.49
2023-05-15T09:18:57.151Z,15.33
2023-05-15T09:21:40.058Z,15.54
2023-05-15T09:24:20.317Z,15.65
2023-05-15T09:27:08.794Z,16.02
2023-05-15T09:29:46.556Z,15.81
2023-05-15T09:32:19.313Z,15.62
2023-05-15T09:35:02.113Z,15.77
2023-05-15T09:37:40.112Z,15.68
2023-05-15T09:40:17.844Z,15.62
2023-05-15T09:42:57.731Z,15.67
2023-05-15T09:45:33.049Z,15.74
2023-05-15T09:48:05.886Z,16.06
2023-05-15T09:50:38.132Z,16.17
2023-05-15T09:53:21.391Z,16.28
2023-05-15T09:55:53.428Z,16.77
2023-05-15T09:58:26.580Z,16.94
2023-05-15T10:01:10.307Z,17.01
2023-05-15T10:03:49.958Z,16.72
2023-05-15T10:06:20.982Z,16.63
2023-05-15T10:09:01.147Z,17.22
2023-05-15T10:11:42.119Z,16.99
2023-05-15T10:14:13.760Z,17.01
2023-05-15T10:16:56.508Z,17.50
2023-05-15T10:19:32.075Z,17.50
2023-05-15T10:22:05.950Z,17.30
2023-05-15T10:24:43.636Z,16.95
2023-05-15T10:27:14.382Z,16.76
2023-05-15T10:29:46.484Z,16.91
2023-05-15T10:32:17.707Z,17.46
2023-05-15T10:34:46.397Z,17.16
2023-05-15T10:37:18.336Z,17.04
2023-05-15T10:39:50.774Z,17.50
2023-05-15T10:42:19.084Z,17.32
2023-05-15T10:44:49.631Z,17.12
2023-05-15T10:47:21.328Z,16.92
2023-05-15T10:52:43.584Z,17.03
2023-05-15T10:55:26.494Z,16.79
2023-05-15T10:57:58.799Z,17.39
2023-05-15T11:00:35.188Z,17.92
2023-05-15T11:03:16.721Z,18.32
2023-05-15T11:06:19.029Z,18.35
2023-05-15T11:08:55.014Z,18.25
2023-05-15T11:12:06.858Z,18.46
2023-05-15T11:14:41.701Z,18.80
2023-05-15T11:17:15.657Z,18.71
2023-05-15T11:20:05.622Z,19.16
2023-05-15T11:22:46.761Z,19.60
2023-05-15T11:25:22.389Z,19.89
2023-05-15T11:27:58.526Z,18.68
2023-05-15T11:30:41.284Z,18.78
2023-05-15T11:33:18.968Z,18.77
2023-05-15T11:36:06.079Z,19.08
2023-05-15T11:38:45.330Z,19.40
2023-05-15T11:41:38.350Z,20.10
2023-05-15T11:44:08.863Z,20.00
2023-05-15T11:46:42.517Z,20.07
2023-05-15T11:49:16.693Z,20.43
2023-05-15T11:51:50.341Z,19.77
2023-05-15T11:54:33.667Z,19.96
2023-05-15T11:57:10.034Z,19.65
2023-05-15T11:59:49.557Z,19.64
2023-05-15T12:02:23.221Z,20.18
2023-05-15T12:04:57.948Z,19.73
2023-05-15T12:07:28.698Z,19.21
2023-05-15T12:09:59.735Z,19.35
2023-05-15T12:12:31.929Z,19.92
2023-05-15T12:15:21.280Z,20.61
2023-05-15T12:17:54.652Z,19.63
2023-05-15T12:20:22.843Z,20.22
2023-05-15T12:22:56.291Z,20.45
2023-05-15T12:25:42.086Z,20.75
2023-05-15T12:28:18.849Z,20.78
2023-05-15T12:30:49.078Z,20.71
2023-05-15T12:33:19.888Z,20.44
2023-05-15T12:36:08.200Z,20.07
2023-05-15T12:38:45.387Z,20.39
2023-05-15T12:41:23.339Z,20.75
2023-05-15T12:43:53.959Z,20.52
2023-05-15T12:46:25.115Z,20.36
2023-05-15T12:48:53.766Z,20.37
2023-05-15T12:51:37.442Z,19.97
2023-05-15T12:54:07.752Z,19.78
2023-05-15T12:56:41.795Z,20.14
2023-05-15T12:59:12.739Z,19.80
2023-05-15T13:01:56.621Z,19.62
2023-05-15T13:04:30.771Z,19.48
2023-05-15T13:07:04.887Z,18.84
2023-05-15T13:09:39.148Z,18.17
2023-05-15T13:12:15.103Z,18.04
2023-05-15T13:14:45.626Z,17.95
2023-05-15T13:20:08.694Z,17.38
2023-05-15T13:22:50.322Z,17.35
2023-05-15T13:25:36.203Z,17.01
2023-05-15T13:28:08.191Z,16.77
2023-05-15T13:30:42.299Z,16.81
2023-05-15T13:33:21.312Z,16.77
2023-05-15T13:35:51.849Z,16.68
2023-05-15T13:38:23.241Z,16.69
2023-05-15T13:41:00.697Z,16.68
2023-05-15T13:43:32.570Z,16.46
2023-05-15T13:46:18.206Z,16.61
2023-05-15T13:48:50.979Z,16.97
2023-05-15T13:51:25.842Z,17.38
2023-05-15T13:53:57.192Z,17.59
2023-05-15T13:59:19.480Z,17.58
2023-05-15T14:01:53.965Z,18.10
2023-05-15T14:04:31.569Z,19.09
2023-05-15T14:07:03.159Z,19.48
2023-05-15T14:09:33.300Z,21.18
2023-05-15T14:12:09.988Z,24.43
2023-05-15T14:14:53.394Z,24.04
2023-05-15T14:17:27.209Z,23.51
2023-05-15T14:20:01.989Z,25.38
2023-05-15T14:22:39.151Z,24.70
2023-05-15T14:25:31.715Z,24.49
2023-05-15T14:28:06.623Z,22.87
2023-05-15T14:30:40.753Z,24.54
2023-05-15T14:33:16.725Z,25.86
2023-05-15T14:35:51.969Z,23.68
2023-05-15T14:38:27.307Z,23.96
2023-05-15T14:40:59.201Z,22.67
2023-05-15T14:43:33.089Z,22.39
2023-05-15T14:46:04.031Z,21.52
2023-05-15T14:48:41.426Z,21.34
2023-05-15T14:51:14.084Z,21.09
2023-05-15T14:53:47.411Z,20.75
2023-05-15T14:56:18.113Z,20.50
2023-05-15T14:58:49.880Z,19.96
2023-05-15T15:01:25.513Z,20.05
2023-05-15T15:04:00.187Z,20.55
2023-05-15T15:06:32.199Z,21.02
2023-05-15T15:09:00.021Z,21.18
2023-05-15T15:11:33.613Z,21.19
2023-05-15T15:14:15.173Z,21.08
2023-05-15T15:16:49.607Z,21.65
2023-05-15T15:19:33.030Z,20.89
2023-05-15T15:22:06.727Z,20.74
2023-05-15T15:24:44.245Z,20.23
2023-05-15T15:27:15.190Z,19.82
2023-05-15T15:29:45.706Z,19.77
2023-05-15T15:32:26.561Z,19.44
2023-05-15T15:35:10.167Z,19.41
2023-05-15T15:37:44.244Z,19.36
2023-05-15T15:40:15.856Z,19.18
2023-05-15T15:42:45.962Z,18.77
2023-05-15T15:48:08.763Z,18.67
2023-05-15T15:50:37.427Z,18.50
2023-05-15T15:53:14.243Z,18.34
2023-05-15T15:55:47.129Z,18.50
2023-05-15T15:58:22.458Z,18.44
2023-05-15T16:00:54.156Z,18.54
2023-05-15T16:03:31.957Z,18.30
2023-05-15T16:06:00.755Z,18.29
2023-05-15T16:08:40.402Z,18.41
2023-05-15T16:11:08.636Z,18.38
2023-05-15T16:13:39.648Z,18.43
2023-05-15T16:16:13.373Z,18.36
2023-05-15T16:18:46.198Z,18.46
2023-05-15T16:21:15.710Z,18.19
2023-05-15T16:23:45.718Z,18.31
2023-05-15T16:26:19.011Z,18.07
2023-05-15T16:28:53.070Z,17.91
2023-05-15T16:31:21.917Z,18.19
2023-05-15T16:33:57.692Z,18.01
2023-05-15T16:36:39.119Z,18.02
2023-05-15T16:39:09.603Z,17.99
2023-05-15T16:41:37.706Z,17.93
2023-05-15T16:44:30.336Z,17.96
2023-05-15T16:47:04.145Z,17.78
2023-05-15T16:49:37.575Z,17.70
2023-05-15T16:52:08.468Z,17.54
2023-05-15T16:54:41.928Z,17.49
2023-05-15T16:57:24.552Z,17.46
2023-05-15T16:59:55.624Z,16.78
2023-05-15T17:02:28.252Z,16.81
2023-05-15T17:05:02.270Z,17.08
2023-05-15T17:07:31.334Z,16.98
2023-05-15T17:10:05.876Z,17.17
2023-05-15T17:12:33.828Z,17.15
2023-05-15T17:15:04.594Z,17.01
2023-05-15T17:17:36.088Z,16.97
2023-05-15T17:20:26.441Z,16.80
2023-05-15T17:23:00.641Z,17.04
2023-05-15T17:25:30.236Z,16.97
2023-05-15T17:28:08.007Z,16.99
2023-05-15T17:30:39.319Z,16.93
2023-05-15T17:33:10.939Z,16.58
2023-05-15T17:35:47.259Z,16.74
2023-05-15T17:38:17.734Z,16.53
2023-05-15T17:40:49.581Z,16.71
2023-05-15T17:43:31.006Z,16.70
2023-05-15T17:46:04.835Z,16.53
2023-05-15T17:48:41.567Z,16.37
2023-05-15T17:51:15.259Z,16.19
2023-05-15T17:53:45.565Z,16.16
2023-05-15T17:56:22.373Z,16.15
2023-05-15T17:58:52.423Z,16.23
2023-05-15T18:01:26.359Z,16.35
2023-05-15T18:03:57.141Z,16.32
2023-05-15T18:06:30.346Z,16.15
2023-05-15T18:09:05.445Z,16.02
2023-05-15T18:11:42.011Z,15.82
2023-05-15T18:17:25.465Z,15.59
2023-05-15T18:20:04.543Z,15.52
2023-05-15T18:25:21.644Z,15.60
2023-05-15T18:27:56.322Z,15.57
2023-05-15T18:30:27.986Z,15.51
2023-05-15T18:33:02.061Z,15.41
2023-05-15T18:35:39.890Z,15.34
2023-05-15T18:38:14.133Z,15.14
2023-05-15T18:40:42.525Z,15.24
2023-05-15T18:43:13.138Z,15.21
2023-05-15T18:45:50.113Z,15.14
2023-05-15T18:48:20.938Z,14.97
2023-05-15T18:50:54.905Z,14.76
2023-05-15T18:53:26.548Z,14.78
2023-05-15T18:55:56.781Z,14.79
2023-05-15T18:58:32.398Z,14.79
2023-05-15T19:01:14.157Z,14.77
2023-05-15T19:03:44.947Z,14.87
2023-05-15T19:06:22.796Z,14.85
2023-05-15T19:08:53.955Z,14.75
2023-05-15T19:11:27.232Z,14.53
2023-05-15T19:13:57.871Z,14.42
2023-05-15T19:16:32.665Z,14.39
2023-05-15T19:19:04.298Z,14.35
2023-05-15T19:21:49.745Z,14.40
2023-05-15T19:24:23.631Z,14.36
2023-05-15T19:27:01.227Z,14.27
2023-05-15T19:29:45.739Z,14.22
2023-05-15T19:32:22.276Z,14.13
2023-05-15T19:34:53.537Z,14.03
2023-05-15T19:37:24.153Z,13.84
2023-05-15T19:39:55.459Z,14.00
2023-05-15T19:42:26.038Z,13.96
2023-05-15T19:47:45.432Z,13.85
2023-05-15T19:50:18.109Z,13.69
2023-05-15T19:52:54.572Z,13.57
2023-05-15T19:55:40.368Z,13.44
2023-05-15T19:58:10.874Z,13.47
2023-05-15T20:00:41.071Z,13.48
2023-05-15T20:03:26.478Z,13.69
2023-05-15T20:05:59.171Z,13.89
2023-05-15T20:08:36.214Z,13.83
2023-05-15T20:11:10.112Z,13.80
2023-05-15T20:13:48.074Z,13.96
2023-05-15T20:16:19.750Z,13.75
2023-05-15T20:18:57.122Z,13.73
2023-05-15T20:21:30.647Z,13.67
2023-05-15T20:24:00.798Z,13.59
2023-05-15T20:26:32.562Z,13.51
2023-05-15T20:29:06.961Z,13.46
2023-05-15T20:31:40.932Z,13.54
2023-05-15T20:34:11.223Z,13.52
2023-05-15T20:36:46.454Z,13.71
2023-05-15T20:39:15.288Z,13.78
2023-05-15T20:41:51.735Z,13.75
2023-05-15T20:44:24.628Z,13.56
2023-05-15T20:47:02.112Z,13.68
2023-05-15T20:49:41.190Z,13.60
2023-05-15T20:52:21.835Z,13.60
2023-05-15T20:54:55.819Z,13.55
2023-05-15T20:57:34.715Z,13.43
2023-05-15T21:00:12.853Z,13.37
2023-05-15T21:02:43.001Z,13.38
2023-05-15T21:05:29.390Z,13.35
2023-05-15T21:08:09.697Z,13.43
2023-05-15T21:10:41.626Z,13.49
2023-05-15T21:13:16.864Z,13.50
2023-05-15T21:15:51.302Z,13.54
2023-05-15T21:18:22.748Z,13.43
2023-05-15T21:20:53.388Z,13.27
2023-05-15T21:23:26.610Z,13.43
2023-05-15T21:28:41.389Z,13.34
2023-05-15T21:31:15.204Z,13.27
2023-05-15T21:33:48.874Z,13.33
2023-05-15T21:36:19.066Z,13.42
2023-05-15T21:38:56.721Z,13.44
2023-05-15T21:41:27.457Z,13.35
2023-05-15T21:44:06.416Z,13.46
2023-05-15T21:46:38.467Z,13.43
2023-05-15T21:49:08.332Z,13.50
2023-05-15T21:54:30.333Z,13.43
2023-05-15T21:56:58.966Z,13.47
2023-05-15T21:59:37.014Z,13.31
2023-05-15T22:02:08.138Z,13.41
2023-05-15T22:04:40.061Z,13.42
2023-05-15T22:07:11.251Z,13.26
2023-05-15T22:09:48.916Z,13.17
2023-05-15T22:12:32.542Z,13.35
2023-05-15T22:15:04.296Z,13.58
2023-05-15T22:17:39.258Z,13.63
2023-05-15T22:20:13.571Z,13.68
2023-05-15T22:22:48.633Z,13.68
2023-05-15T22:25:27.951Z,13.89
2023-05-15T22:27:58.457Z,14.02
2023-05-15T22:30:28.856Z,14.13
2023-05-15T22:33:00.708Z,14.18
2023-05-15T22:35:32.273Z,14.11
2023-05-15T22:38:00.896Z,14.34
2023-05-15T22:40:31.815Z,14.31
2023-05-15T22:43:09.856Z,14.19
2023-05-15T22:45:40.467Z,14.18
2023-05-15T22:48:11.501Z,13.95
2023-05-15T22:50:51.474Z,14.17
2023-05-15T22:53:22.329Z,14.19
2023-05-15T22:55:59.210Z,14.04
2023-05-15T22:58:27.670Z,14.29
2023-05-15T23:01:00.216Z,14.21
2023-05-15T23:03:29.044Z,14.16
2023-05-15T23:06:01.290Z,14.08
2023-05-15T23:08:44.400Z,14.00
2023-05-15T23:11:20.430Z,13.98
2023-05-15T23:16:37.477Z,13.94
2023-05-15T23:19:23.470Z,13.93
2023-05-15T23:22:03.223Z,13.76
2023-05-15T23:24:34.990Z,13.96
2023-05-15T23:27:15.490Z,13.92
2023-05-15T23:29:49.451Z,13.71
2023-05-15T23:32:40.319Z,13.61
2023-05-15T23:35:15.098Z,13.74
2023-05-15T23:37:59.860Z,13.65
2023-05-15T23:40:31.590Z,13.57
2023-05-15T23:45:44.841Z,13.38
2023-05-15T23:48:17.640Z,13.34
2023-05-15T23:50:59.747Z,13.30
2023-05-15T23:53:40.348Z,13.25
2023-05-15T23:56:13.047Z,13.31
2023-05-15T23:58:51.060Z,13.34
